Time;durP1;ratioP1;P1;durP2;ratioP2;P2;SDS_P1;SDS_P2;PMS_P1;PMS_P2;Temp;Humidity;BMP_temperature;BMP_pressure;BME280_temperature;BME280_humidity;BME280_pressure;Samples;Min_cycle;Max_cycle;Signal;HPM_P1;HPM_P2
2022/06/28 00:01:56;;;;;;;1.05;0.90;;;22.60;89.90;;;;;;4995702;28;20078;-62
2022/06/28 00:04:22;;;;;;;0.80;0.80;;;22.60;89.90;;;;;;5011007;28;20046;-62
2022/06/28 00:06:48;;;;;;;0.80;0.80;;;22.60;89.90;;;;;;4990467;28;20038;-62
2022/06/28 00:09:14;;;;;;;0.75;0.57;;;22.60;89.90;;;;;;4993465;28;20103;-62
2022/06/28 00:11:43;;;;;;;0.70;0.70;;;22.40;89.80;;;;;;4993897;28;20128;-62
2022/06/28 00:16:55;;;;;;;0.80;0.70;;;22.50;89.80;;;;;;4991104;28;20104;-62
2022/06/28 00:19:21;;;;;;;1.85;0.90;;;22.50;89.80;;;;;;4991148;28;20047;-62
2022/06/28 00:21:48;;;;;;;0.93;0.80;;;22.50;89.90;;;;;;4989958;28;20065;-62
2022/06/28 00:24:14;;;;;;;1.08;0.82;;;22.50;89.80;;;;;;4991605;28;20050;-62
2022/06/28 00:26:41;;;;;;;0.85;0.80;;;22.50;89.90;;;;;;4990856;28;20379;-62
2022/06/28 00:29:07;;;;;;;0.95;0.80;;;22.50;89.90;;;;;;4991654;28;20114;-62
2022/06/28 00:31:33;;;;;;;1.10;1.00;;;22.50;89.90;;;;;;4990542;28;20077;-62
2022/06/28 00:33:59;;;;;;;0.93;0.80;;;22.50;89.80;;;;;;5002490;28;20172;-62
2022/06/28 00:36:25;;;;;;;0.80;0.80;;;22.50;90.20;;;;;;5008415;28;20845;-62
2022/06/28 00:38:52;;;;;;;0.65;0.65;;;22.50;89.90;;;;;;5010725;28;20129;-62
2022/06/28 00:41:19;;;;;;;1.17;0.90;;;22.50;89.90;;;;;;5010818;28;20049;-62
2022/06/28 00:43:45;;;;;;;1.10;0.85;;;22.50;89.90;;;;;;5011107;28;20483;-62
2022/06/28 00:46:11;;;;;;;0.73;0.73;;;22.50;89.90;;;;;;4996136;28;20082;-62
2022/06/28 00:48:38;;;;;;;0.95;0.73;;;22.50;89.90;;;;;;4989524;28;20170;-62
2022/06/28 00:51:04;;;;;;;1.45;0.70;;;22.50;89.90;;;;;;4999124;28;20614;-62
2022/06/28 00:53:30;;;;;;;1.05;0.80;;;22.50;89.90;;;;;;5012980;28;20034;-62
2022/06/28 00:55:55;;;;;;;0.82;0.80;;;22.50;89.90;;;;;;5014603;28;20038;-62
2022/06/28 00:58:21;;;;;;;1.67;0.93;;;22.50;89.90;;;;;;5003138;28;20042;-62
2022/06/28 01:00:49;;;;;;;1.00;0.80;;;22.50;89.90;;;;;;4994726;28;20053;-62
2022/06/28 01:03:17;;;;;;;1.17;0.90;;;22.50;89.90;;;;;;4977868;28;20152;-62
2022/06/28 01:05:43;;;;;;;0.85;0.80;;;22.50;89.90;;;;;;4992392;28;20439;-62
2022/06/28 01:08:10;;;;;;;1.33;0.80;;;22.50;89.90;;;;;;5002548;28;20504;-62
2022/06/28 01:10:37;;;;;;;0.90;0.80;;;22.50;89.90;;;;;;5010167;28;20088;-62
2022/06/28 01:13:03;;;;;;;1.05;0.73;;;22.50;89.90;;;;;;5014094;28;20494;-62
2022/06/28 01:15:30;;;;;;;0.80;0.80;;;22.50;90.00;;;;;;4996003;28;20117;-62
2022/06/28 01:17:58;;;;;;;0.60;0.60;;;22.50;90.00;;;;;;4997704;28;20479;-62
2022/06/28 01:20:25;;;;;;;0.95;0.80;;;22.50;90.00;;;;;;4992555;28;20387;-62
2022/06/28 01:22:52;;;;;;;1.00;0.80;;;22.40;89.90;;;;;;5005880;28;20052;-63
2022/06/28 01:25:17;;;;;;;0.75;0.63;;;22.50;90.00;;;;;;5013615;28;20049;-62
2022/06/28 01:27:44;;;;;;;0.80;0.80;;;22.50;90.00;;;;;;4995923;28;20044;-62
2022/06/28 01:30:10;;;;;;;0.75;0.75;;;22.40;89.90;;;;;;4995979;28;20042;-62
2022/06/28 01:32:36;;;;;;;0.70;0.70;;;22.40;89.90;;;;;;4996176;28;20093;-62
2022/06/28 01:35:03;;;;;;;0.55;0.55;;;22.40;89.90;;;;;;4995341;28;20719;-62
2022/06/28 01:37:29;;;;;;;0.85;0.70;;;22.40;90.00;;;;;;4977870;28;20049;-62
2022/06/28 01:39:55;;;;;;;0.80;0.80;;;22.40;90.00;;;;;;5014055;28;20041;-62
2022/06/28 01:42:20;;;;;;;0.60;0.60;;;22.50;90.00;;;;;;5013590;28;20504;-62
2022/06/28 01:44:49;;;;;;;1.25;0.80;;;22.40;90.00;;;;;;5007156;28;20050;-63
2022/06/28 01:47:17;;;;;;;0.77;0.68;;;22.40;90.00;;;;;;4994084;28;20523;-62
2022/06/28 01:49:43;;;;;;;0.77;0.77;;;22.40;90.00;;;;;;4995088;28;20046;-62
2022/06/28 01:52:09;;;;;;;0.85;0.80;;;22.40;90.00;;;;;;5001587;28;20096;-62
2022/06/28 01:54:34;;;;;;;1.33;0.80;;;22.40;90.00;;;;;;5013078;28;20368;-62
2022/06/28 01:57:02;;;;;;;0.88;0.77;;;22.40;90.00;;;;;;5013422;28;20056;-62
2022/06/28 01:59:28;;;;;;;0.70;0.70;;;22.40;90.00;;;;;;5013148;28;20046;-62
2022/06/28 02:01:54;;;;;;;2.17;0.85;;;22.40;90.00;;;;;;5013053;28;20045;-62
2022/06/28 02:04:26;;;;;;;0.90;0.80;;;22.40;90.00;;;;;;5013162;28;20045;-62
2022/06/28 02:06:52;;;;;;;0.60;0.60;;;22.40;90.00;;;;;;5005321;28;20384;-62
2022/06/28 02:09:18;;;;;;;0.75;0.73;;;22.40;90.00;;;;;;4993938;28;20046;-62
2022/06/28 02:11:44;;;;;;;0.73;0.73;;;22.40;90.00;;;;;;4993206;28;20829;-62
2022/06/28 02:14:09;;;;;;;0.93;0.80;;;22.40;90.00;;;;;;4993866;28;20554;-62
2022/06/28 02:16:36;;;;;;;0.85;0.73;;;22.40;90.00;;;;;;4993973;28;20061;-63
2022/06/28 02:19:02;;;;;;;0.82;0.80;;;22.40;90.00;;;;;;4993746;28;20054;-62
2022/06/28 02:21:29;;;;;;;1.25;0.82;;;22.40;90.00;;;;;;4991463;28;20050;-62
2022/06/28 02:23:55;;;;;;;0.68;0.68;;;22.40;90.00;;;;;;4993654;28;20133;-62
2022/06/28 02:26:21;;;;;;;0.70;0.70;;;22.40;90.00;;;;;;4993374;28;20121;-62
2022/06/28 02:28:47;;;;;;;0.82;0.80;;;22.40;90.00;;;;;;4993095;28;20595;-63
2022/06/28 02:31:14;;;;;;;0.88;0.88;;;22.40;90.00;;;;;;4993358;28;20038;-62
2022/06/28 02:33:41;;;;;;;0.88;0.88;;;22.40;90.00;;;;;;4994831;28;20108;-62
2022/06/28 02:41:36;;;;;;;1.05;0.90;;;22.40;90.00;;;;;;5010561;28;20052;-62
2022/06/28 02:44:02;;;;;;;0.90;0.80;;;22.30;90.00;;;;;;4995050;28;20133;-62
2022/06/28 02:46:28;;;;;;;0.95;0.80;;;22.30;90.00;;;;;;5011961;28;20460;-62
2022/06/28 02:48:54;;;;;;;0.98;0.77;;;22.40;90.00;;;;;;5012549;28;20049;-62
2022/06/28 02:51:20;;;;;;;1.38;0.80;;;22.40;90.00;;;;;;5010995;28;20152;-62
2022/06/28 02:53:46;;;;;;;0.70;0.70;;;22.30;90.00;;;;;;5012158;28;20038;-62
2022/06/28 02:56:12;;;;;;;0.82;0.73;;;22.30;90.00;;;;;;5011332;28;20647;-62
2022/06/28 02:58:38;;;;;;;1.00;1.00;;;22.30;90.00;;;;;;5011338;28;20041;-62
2022/06/28 03:01:04;;;;;;;0.75;0.65;;;22.30;90.00;;;;;;5009001;28;20180;-62
2022/06/28 03:03:30;;;;;;;0.73;0.73;;;22.30;90.00;;;;;;5011955;28;20042;-62
2022/06/28 03:05:56;;;;;;;0.75;0.70;;;22.30;90.00;;;;;;5010234;28;20049;-62
2022/06/28 03:08:21;;;;;;;0.60;0.60;;;22.30;90.00;;;;;;4994914;28;20078;-62
2022/06/28 03:10:47;;;;;;;0.90;0.70;;;22.30;90.00;;;;;;5011721;28;20499;-62
2022/06/28 03:13:13;;;;;;;0.80;0.80;;;22.30;90.00;;;;;;5011970;28;20041;-62
2022/06/28 03:15:39;;;;;;;0.90;0.80;;;22.30;90.00;;;;;;4991193;28;20038;-62
2022/06/28 03:18:04;;;;;;;0.95;0.80;;;22.30;90.00;;;;;;4974931;28;20038;-63
2022/06/28 03:20:30;;;;;;;0.60;0.60;;;22.30;90.00;;;;;;4990687;28;20081;-62
2022/06/28 03:22:56;;;;;;;0.80;0.80;;;22.30;90.00;;;;;;4992699;28;20488;-63
2022/06/28 03:25:22;;;;;;;1.17;0.88;;;22.30;90.00;;;;;;4992363;28;20050;-62
2022/06/28 03:27:48;;;;;;;0.60;0.60;;;22.30;90.00;;;;;;4991898;28;20492;-62
2022/06/28 03:30:15;;;;;;;0.80;0.80;;;22.30;90.00;;;;;;4992054;28;20064;-62
2022/06/28 03:32:41;;;;;;;1.80;0.80;;;22.30;90.00;;;;;;4991714;28;20046;-62
2022/06/28 03:35:07;;;;;;;0.65;0.55;;;22.30;90.00;;;;;;4991477;28;20155;-62
2022/06/28 03:37:34;;;;;;;0.77;0.60;;;22.30;90.00;;;;;;5001583;28;20108;-63
2022/06/28 03:39:59;;;;;;;0.75;0.52;;;22.30;90.00;;;;;;5011564;28;20042;-62
2022/06/28 03:42:25;;;;;;;0.70;0.70;;;22.30;90.00;;;;;;5011300;28;20056;-62
2022/06/28 03:44:51;;;;;;;1.10;0.90;;;22.30;90.00;;;;;;5010747;28;20060;-62
2022/06/28 03:47:17;;;;;;;1.23;0.70;;;22.30;90.00;;;;;;5011039;28;20042;-63
2022/06/28 03:49:43;;;;;;;0.88;0.60;;;22.30;90.00;;;;;;5011002;28;20377;-63
2022/06/28 03:52:08;;;;;;;0.70;0.70;;;22.30;90.00;;;;;;5009242;28;20546;-61
2022/06/28 03:54:34;;;;;;;0.70;0.70;;;22.30;90.00;;;;;;5011054;28;20050;-61
2022/06/28 03:57:00;;;;;;;1.23;0.75;;;22.30;90.00;;;;;;5011566;28;20045;-61
2022/06/28 03:59:26;;;;;;;1.13;0.90;;;22.30;90.00;;;;;;5010930;28;20037;-60
2022/06/28 04:01:51;;;;;;;1.52;0.90;;;22.30;90.00;;;;;;5003901;28;20082;-60
2022/06/28 04:04:17;;;;;;;0.80;0.80;;;22.30;90.00;;;;;;4991817;28;20050;-60
2022/06/28 04:06:43;;;;;;;0.60;0.60;;;22.30;90.00;;;;;;4989381;28;20053;-60
2022/06/28 04:09:09;;;;;;;1.63;0.85;;;22.30;90.20;;;;;;4991868;28;20149;-60
2022/06/28 04:11:35;;;;;;;0.85;0.85;;;22.30;90.00;;;;;;4991379;28;20081;-60
2022/06/28 04:14:00;;;;;;;1.48;0.90;;;22.30;90.00;;;;;;4991905;28;20055;-60
2022/06/28 04:16:26;;;;;;;0.90;0.70;;;22.30;90.00;;;;;;4990987;28;20042;-61
2022/06/28 04:18:52;;;;;;;0.93;0.73;;;22.30;90.00;;;;;;4984584;28;20034;-61
2022/06/28 04:21:19;;;;;;;1.67;0.93;;;22.30;90.00;;;;;;5009417;28;20475;-62
2022/06/28 04:23:45;;;;;;;0.70;0.70;;;22.30;90.00;;;;;;5010685;28;20057;-61
2022/06/28 04:26:11;;;;;;;0.85;0.80;;;22.30;90.00;;;;;;5010679;28;20054;-61
2022/06/28 04:28:37;;;;;;;1.02;0.80;;;22.30;90.00;;;;;;5010615;28;20042;-61
2022/06/28 04:31:04;;;;;;;1.20;0.93;;;22.30;90.00;;;;;;4993148;28;20463;-61
2022/06/28 04:33:29;;;;;;;1.35;0.70;;;22.30;90.00;;;;;;5010957;28;20112;-61
2022/06/28 04:35:55;;;;;;;2.28;0.80;;;22.30;90.00;;;;;;5000011;28;20631;-61
2022/06/28 04:38:21;;;;;;;1.20;0.80;;;22.30;90.00;;;;;;4991350;28;20105;-61
2022/06/28 04:40:47;;;;;;;0.98;0.80;;;22.30;90.00;;;;;;4997634;28;20491;-61
2022/06/28 04:43:13;;;;;;;1.20;1.00;;;22.30;90.00;;;;;;5010966;28;20060;-61
2022/06/28 04:45:39;;;;;;;0.60;0.60;;;22.30;90.00;;;;;;5010138;28;20049;-61
2022/06/28 04:48:05;;;;;;;1.00;0.70;;;22.30;90.00;;;;;;5010810;28;20068;-61
2022/06/28 04:50:31;;;;;;;1.17;0.80;;;22.30;90.00;;;;;;4991913;28;20076;-61
2022/06/28 04:52:57;;;;;;;1.08;0.95;;;22.30;90.00;;;;;;5010459;28;20140;-61
2022/06/28 04:55:23;;;;;;;1.67;1.00;;;22.30;90.00;;;;;;4993001;28;20077;-61
2022/06/28 04:57:49;;;;;;;1.02;0.90;;;22.30;90.00;;;;;;5010244;28;20085;-62
2022/06/28 05:00:15;;;;;;;1.05;0.90;;;22.30;90.00;;;;;;5006083;28;20125;-61
2022/06/28 05:02:42;;;;;;;0.95;0.95;;;22.30;90.00;;;;;;5009728;28;20575;-61
2022/06/28 05:05:08;;;;;;;0.80;0.80;;;22.30;90.00;;;;;;5007501;28;20056;-61
2022/06/28 05:07:34;;;;;;;0.68;0.68;;;22.30;90.00;;;;;;4991222;28;20042;-61
2022/06/28 05:10:01;;;;;;;0.80;0.80;;;22.30;90.00;;;;;;4990671;28;20216;-61
2022/06/28 05:12:27;;;;;;;0.80;0.80;;;22.30;89.90;;;;;;4990919;28;20049;-61
2022/06/28 05:14:53;;;;;;;1.08;0.60;;;22.30;90.20;;;;;;4989129;28;20042;-61
2022/06/28 05:17:18;;;;;;;1.05;0.70;;;22.30;89.90;;;;;;4990852;28;20045;-61
2022/06/28 05:19:45;;;;;;;1.00;0.85;;;22.40;90.00;;;;;;5006547;28;20482;-61
2022/06/28 05:22:11;;;;;;;0.77;0.70;;;22.30;90.00;;;;;;5009193;28;20046;-61
2022/06/28 05:24:37;;;;;;;1.10;0.60;;;22.40;90.00;;;;;;5010596;28;20049;-61
2022/06/28 05:27:04;;;;;;;0.80;0.80;;;22.30;90.00;;;;;;5008471;28;20120;-61
2022/06/28 05:29:30;;;;;;;0.60;0.60;;;22.40;90.00;;;;;;4991203;28;20057;-61
2022/06/28 05:31:56;;;;;;;1.00;0.70;;;22.40;90.00;;;;;;4989915;28;20038;-61
2022/06/28 05:34:22;;;;;;;1.30;0.88;;;22.40;90.00;;;;;;4973490;28;20542;-61
2022/06/28 05:36:47;;;;;;;0.88;0.60;;;22.40;90.00;;;;;;4971270;28;20054;-61
2022/06/28 05:39:14;;;;;;;0.63;0.63;;;22.40;90.00;;;;;;4992714;28;20487;-61
2022/06/28 05:41:41;;;;;;;0.60;0.60;;;22.40;90.00;;;;;;5012567;28;20139;-61
2022/06/28 05:44:08;;;;;;;0.45;0.45;;;22.40;90.00;;;;;;5013359;28;20111;-61
2022/06/28 05:46:34;;;;;;;0.73;0.73;;;22.40;90.00;;;;;;4995683;28;20840;-61
2022/06/28 05:49:00;;;;;;;0.50;0.50;;;22.40;90.00;;;;;;5013333;28;20121;-62
2022/06/28 05:51:26;;;;;;;0.63;0.63;;;22.40;90.00;;;;;;5012194;28;20050;-61
2022/06/28 05:53:52;;;;;;;0.70;0.70;;;22.40;90.00;;;;;;5013014;28;20836;-61
2022/06/28 05:56:17;;;;;;;0.75;0.60;;;22.40;90.00;;;;;;5013459;28;20052;-61
2022/06/28 05:58:43;;;;;;;0.70;0.70;;;22.40;90.00;;;;;;5013192;28;20046;-61
2022/06/28 06:01:09;;;;;;;1.30;0.70;;;22.40;90.00;;;;;;5013324;28;20080;-61
2022/06/28 06:03:35;;;;;;;0.60;0.60;;;22.40;90.00;;;;;;5013406;28;20061;-61
2022/06/28 06:06:00;;;;;;;0.65;0.65;;;22.40;90.00;;;;;;4996643;28;20476;-61
2022/06/28 06:08:26;;;;;;;0.68;0.60;;;22.40;90.00;;;;;;4993974;28;20057;-61
2022/06/28 06:10:52;;;;;;;0.70;0.70;;;22.50;90.00;;;;;;4979504;28;20371;-61
2022/06/28 06:13:18;;;;;;;0.60;0.60;;;22.50;90.00;;;;;;5013397;28;20048;-61
2022/06/28 06:15:43;;;;;;;0.70;0.70;;;22.50;90.00;;;;;;4999926;28;20109;-61
2022/06/28 06:18:09;;;;;;;1.08;0.63;;;22.50;90.00;;;;;;4993440;28;20531;-61
2022/06/28 06:20:35;;;;;;;0.77;0.70;;;22.50;90.00;;;;;;4991993;28;20097;-61
2022/06/28 06:23:00;;;;;;;0.68;0.60;;;22.50;90.00;;;;;;4993130;28;20058;-61
2022/06/28 06:25:26;;;;;;;0.90;0.60;;;22.50;90.00;;;;;;4994457;28;20061;-61
2022/06/28 06:27:52;;;;;;;1.80;0.63;;;22.50;90.00;;;;;;5012646;28;20034;-61
2022/06/28 06:30:17;;;;;;;0.73;0.47;;;22.50;90.00;;;;;;5012738;28;20512;-61
2022/06/28 06:32:43;;;;;;;0.70;0.70;;;22.50;90.00;;;;;;5012963;28;20145;-62
2022/06/28 06:35:09;;;;;;;2.00;0.70;;;22.50;89.90;;;;;;4993106;28;20042;-61
2022/06/28 06:37:35;;;;;;;0.82;0.82;;;22.50;89.90;;;;;;5012334;28;20045;-61
2022/06/28 06:40:01;;;;;;;0.52;0.52;;;22.50;89.90;;;;;;5006843;28;20096;-61
2022/06/28 06:42:27;;;;;;;0.65;0.65;;;22.50;89.90;;;;;;4993207;28;20419;-61
2022/06/28 06:44:53;;;;;;;0.75;0.70;;;22.50;89.90;;;;;;4975230;28;20053;-61
2022/06/28 06:47:18;;;;;;;0.70;0.70;;;22.50;89.90;;;;;;4975453;28;20073;-61
2022/06/28 06:49:44;;;;;;;0.95;0.60;;;22.50;89.80;;;;;;5011221;28;20045;-61
2022/06/28 06:52:10;;;;;;;0.77;0.63;;;22.50;89.90;;;;;;4992666;28;20053;-61
2022/06/28 06:54:36;;;;;;;0.50;0.50;;;22.50;89.80;;;;;;4992986;28;20369;-61
2022/06/28 06:57:01;;;;;;;0.93;0.73;;;22.50;89.80;;;;;;4992521;28;20045;-61
2022/06/28 06:59:27;;;;;;;0.70;0.70;;;22.50;89.80;;;;;;5012476;28;20069;-61
2022/06/28 07:01:53;;;;;;;1.35;0.80;;;22.60;89.80;;;;;;5011043;28;20048;-61
2022/06/28 07:04:18;;;;;;;0.70;0.70;;;22.60;89.80;;;;;;5012208;28;20387;-61
2022/06/28 07:06:44;;;;;;;0.50;0.50;;;22.60;89.80;;;;;;5010538;28;20042;-61
2022/06/28 07:09:10;;;;;;;1.33;0.93;;;22.60;89.80;;;;;;5011964;28;20439;-62
2022/06/28 07:11:36;;;;;;;0.70;0.70;;;22.60;89.80;;;;;;4999646;28;20085;-61
2022/06/28 07:14:02;;;;;;;0.80;0.80;;;22.60;89.80;;;;;;5010518;28;20125;-61
2022/06/28 07:16:28;;;;;;;0.70;0.70;;;22.60;89.80;;;;;;4977924;28;20576;-60
2022/06/28 07:18:54;;;;;;;0.98;0.88;;;22.60;90.10;;;;;;4998504;28;20049;-60
2022/06/28 07:21:20;;;;;;;0.63;0.60;;;22.60;89.80;;;;;;5010470;28;20046;-60
2022/06/28 07:23:45;;;;;;;0.52;0.52;;;22.60;89.70;;;;;;4994412;28;20073;-60
2022/06/28 07:26:11;;;;;;;0.82;0.80;;;22.60;89.70;;;;;;5004288;28;20046;-60
2022/06/28 07:28:37;;;;;;;2.00;0.70;;;22.60;89.70;;;;;;4991987;28;20085;-61
2022/06/28 07:31:03;;;;;;;0.73;0.73;;;22.60;89.70;;;;;;4993992;28;20460;-60
2022/06/28 07:33:29;;;;;;;0.80;0.80;;;22.60;89.60;;;;;;4994626;28;20172;-60
2022/06/28 07:35:54;;;;;;;0.98;0.73;;;22.60;89.60;;;;;;5004014;28;20045;-60
2022/06/28 07:38:20;;;;;;;0.82;0.82;;;22.60;89.60;;;;;;5011239;28;20069;-60
2022/06/28 07:40:46;;;;;;;1.83;1.25;;;22.60;89.60;;;;;;4998985;28;20104;-61
2022/06/28 07:43:11;;;;;;;1.42;0.70;;;22.60;89.60;;;;;;5002968;28;20092;-60
2022/06/28 07:45:39;;;;;;;0.77;0.77;;;22.60;89.60;;;;;;5008244;28;20049;-60
2022/06/28 07:48:06;;;;;;;1.08;0.77;;;22.60;89.60;;;;;;5003723;28;20069;-60
2022/06/28 07:53:17;;;;;;;0.60;0.60;;;22.60;89.50;;;;;;5006725;28;20058;-60
2022/06/28 07:55:43;;;;;;;2.85;1.80;;;22.60;89.50;;;;;;4993239;28;20045;-58
2022/06/28 07:58:09;;;;;;;7.03;2.55;;;22.60;89.40;;;;;;5006912;28;20053;-60
2022/06/28 08:00:35;;;;;;;7.82;2.28;;;22.60;89.20;;;;;;4996632;28;20256;-60
2022/06/28 08:03:01;;;;;;;4.13;2.15;;;22.60;89.10;;;;;;5008596;28;20068;-60
2022/06/28 08:05:26;;;;;;;1.70;1.27;;;22.60;89.10;;;;;;5009183;28;20053;-60
2022/06/28 08:07:52;;;;;;;2.50;1.40;;;22.60;89.00;;;;;;4986191;28;20116;-59
2022/06/28 08:10:18;;;;;;;2.70;1.20;;;22.60;89.00;;;;;;5007716;28;20077;-60
2022/06/28 08:12:45;;;;;;;1.95;1.20;;;22.60;89.00;;;;;;5003862;28;20543;-60
2022/06/28 08:15:11;;;;;;;1.77;1.15;;;22.60;89.00;;;;;;5005963;28;20471;-59
2022/06/28 08:17:37;;;;;;;1.10;0.88;;;22.60;89.00;;;;;;5004436;28;20140;-60
2022/06/28 08:20:04;;;;;;;0.80;0.80;;;22.60;89.00;;;;;;4989000;28;20100;-59
2022/06/28 08:22:29;;;;;;;2.15;1.10;;;22.60;89.60;;;;;;5011324;28;20364;-60
2022/06/28 08:24:55;;;;;;;2.30;0.85;;;22.60;88.90;;;;;;5010293;28;20061;-60
2022/06/28 08:27:21;;;;;;;1.05;0.93;;;22.60;88.90;;;;;;5011087;28;20590;-59
2022/06/28 08:29:47;;;;;;;2.78;0.95;;;22.60;88.80;;;;;;5008945;28;20042;-59
2022/06/28 08:32:13;;;;;;;2.65;0.90;;;22.60;88.80;;;;;;5001116;28;20050;-59
2022/06/28 08:34:39;;;;;;;2.05;1.20;;;22.60;88.80;;;;;;5010331;28;20065;-60
2022/06/28 08:37:06;;;;;;;1.13;0.80;;;22.60;88.80;;;;;;4991204;28;20057;-59
2022/06/28 08:39:32;;;;;;;1.77;1.05;;;22.60;88.70;;;;;;5010552;28;20540;-60
2022/06/28 08:42:03;;;;;;;1.42;0.90;;;22.60;88.70;;;;;;5001752;28;20120;-59
2022/06/28 08:44:35;;;;;;;1.67;0.82;;;22.60;88.70;;;;;;5000742;28;20129;-60
2022/06/28 08:47:02;;;;;;;3.50;1.17;;;22.60;88.60;;;;;;5009675;28;20125;-60
2022/06/28 08:49:38;;;;;;;2.83;1.00;;;22.60;88.60;;;;;;5010630;28;20100;-61
2022/06/28 08:52:07;;;;;;;0.80;0.80;;;22.60;88.60;;;;;;4991541;28;20391;-61
2022/06/28 08:54:34;;;;;;;1.13;0.60;;;22.60;88.60;;;;;;5009631;28;20045;-61
2022/06/28 08:57:00;;;;;;;5.38;1.23;;;22.60;88.60;;;;;;5009990;28;20117;-61
2022/06/28 08:59:26;;;;;;;2.20;1.20;;;22.70;88.50;;;;;;5010686;28;20451;-61
2022/06/28 09:01:52;;;;;;;1.75;1.10;;;22.60;88.10;;;;;;5009883;28;20447;-62
2022/06/28 09:04:18;;;;;;;3.17;1.10;;;22.60;87.90;;;;;;5010277;28;20100;-61
2022/06/28 09:06:44;;;;;;;0.75;0.75;;;22.70;87.90;;;;;;5004934;28;20374;-61
2022/06/28 09:09:10;;;;;;;1.73;0.73;;;22.60;87.80;;;;;;4994856;28;20109;-61
2022/06/28 09:11:41;;;;;;;1.67;0.70;;;22.60;87.70;;;;;;4992496;28;20038;-61
2022/06/28 09:14:23;;;;;;;1.70;0.90;;;22.60;87.70;;;;;;4994437;28;20045;-62
2022/06/28 09:16:49;;;;;;;2.10;0.80;;;22.60;87.50;;;;;;4996274;28;20129;-62
2022/06/28 09:19:15;;;;;;;2.78;1.08;;;22.60;87.60;;;;;;5013906;28;20058;-61
2022/06/28 09:21:43;;;;;;;4.13;0.90;;;22.70;87.60;;;;;;5010833;28;20046;-61
2022/06/28 09:24:08;;;;;;;4.30;1.17;;;22.60;87.50;;;;;;5002852;28;20369;-61
2022/06/28 09:26:34;;;;;;;1.25;0.93;;;22.70;87.50;;;;;;4994426;28;20047;-61
2022/06/28 09:29:00;;;;;;;1.10;0.88;;;22.60;87.40;;;;;;4994295;28;20038;-61
2022/06/28 09:31:28;;;;;;;1.02;0.90;;;22.70;87.40;;;;;;4993254;28;20042;-61
2022/06/28 09:34:02;;;;;;;1.70;0.70;;;22.70;87.40;;;;;;5002441;28;20041;-61
2022/06/28 09:36:37;;;;;;;1.10;0.90;;;22.70;87.30;;;;;;5011980;28;20084;-61
2022/06/28 09:39:15;;;;;;;0.70;0.63;;;22.70;87.30;;;;;;5013669;28;20038;-62
2022/06/28 09:41:46;;;;;;;1.75;0.98;;;22.70;87.10;;;;;;4994760;28;20050;-61
2022/06/28 09:44:12;;;;;;;0.77;0.77;;;22.70;87.20;;;;;;5002480;28;20082;-61
2022/06/28 09:46:39;;;;;;;1.63;0.77;;;22.70;87.20;;;;;;4993893;28;20488;-61
2022/06/28 09:49:06;;;;;;;0.60;0.60;;;22.70;87.10;;;;;;4976627;28;20468;-61
2022/06/28 09:51:35;;;;;;;0.95;0.80;;;22.70;87.10;;;;;;4993259;28;20372;-61
2022/06/28 09:54:04;;;;;;;0.80;0.80;;;22.70;87.10;;;;;;5003993;28;20050;-61
2022/06/28 09:56:35;;;;;;;2.22;0.75;;;22.70;87.00;;;;;;5006626;28;20037;-62
2022/06/28 09:59:02;;;;;;;1.13;0.70;;;22.70;87.00;;;;;;5008108;28;20034;-61
2022/06/28 10:01:29;;;;;;;0.77;0.77;;;22.70;87.00;;;;;;5003727;28;20045;-61
2022/06/28 10:03:55;;;;;;;0.90;0.70;;;22.70;87.00;;;;;;5012393;28;20042;-61
2022/06/28 10:06:22;;;;;;;2.63;0.82;;;22.70;87.00;;;;;;5010673;28;20194;-61
2022/06/28 10:08:48;;;;;;;1.08;0.90;;;22.70;87.00;;;;;;5012508;28;20049;-60
2022/06/28 10:11:15;;;;;;;1.98;0.80;;;22.70;86.90;;;;;;4995801;28;20042;-62
2022/06/28 10:16:27;;;;;;;;;;;22.70;86.60;;;;;;5009553;28;20050;-62
2022/06/28 10:18:55;;;;;;;1.58;1.02;;;22.70;85.60;;;;;;4996134;28;19917;-61
2022/06/28 10:21:42;;;;;;;1.02;0.68;;;22.70;86.40;;;;;;4999999;28;20054;-61
2022/06/28 10:24:08;;;;;;;3.00;1.20;;;22.70;86.00;;;;;;4992787;28;20174;-61
2022/06/28 10:26:34;;;;;;;1.58;0.70;;;22.70;86.30;;;;;;5005811;28;20478;-61
2022/06/28 10:29:01;;;;;;;2.85;0.60;;;22.70;86.20;;;;;;5013154;28;20069;-61
2022/06/28 10:31:29;;;;;;;1.35;0.80;;;22.70;86.20;;;;;;5012046;28;20045;-61
2022/06/28 10:34:08;;;;;;;1.05;0.70;;;22.70;86.20;;;;;;5013075;28;20361;-61
2022/06/28 10:36:46;;;;;;;2.25;1.20;;;22.70;86.10;;;;;;5011161;28;20046;-61
2022/06/28 10:39:17;;;;;;;1.27;0.80;;;22.70;86.00;;;;;;5012548;28;20450;-61
2022/06/28 10:42:07;;;;;;;2.75;1.15;;;22.70;86.10;;;;;;5011294;28;20455;-61
2022/06/28 10:44:33;;;;;;;1.15;0.77;;;22.70;85.80;;;;;;4998412;28;20054;-61
2022/06/28 10:47:11;;;;;;;0.80;0.65;;;22.70;86.10;;;;;;4997846;28;20096;-61
2022/06/28 10:49:45;;;;;;;2.40;0.73;;;22.70;85.90;;;;;;4993221;28;20101;-60
2022/06/28 10:52:13;;;;;;;3.92;0.90;;;22.70;86.00;;;;;;4990995;28;20046;-62
2022/06/28 10:54:41;;;;;;;2.97;0.77;;;22.70;85.80;;;;;;5000699;28;20046;-63
2022/06/28 10:57:26;;;;;;;0.68;0.68;;;22.70;85.50;;;;;;4978345;28;20081;-62
2022/06/28 10:59:54;;;;;;;1.92;0.88;;;22.70;85.00;;;;;;5012335;28;20057;-62
2022/06/28 11:02:21;;;;;;;2.92;0.60;;;22.70;85.20;;;;;;5011167;28;20050;-62
2022/06/28 11:05:02;;;;;;;1.48;0.80;;;22.70;85.10;;;;;;5007972;28;20058;-62
2022/06/28 11:07:31;;;;;;;1.58;0.85;;;22.70;85.10;;;;;;4992194;28;20046;-62
2022/06/28 11:09:59;;;;;;;1.70;0.85;;;22.70;85.10;;;;;;4993043;28;20057;-62
2022/06/28 11:12:28;;;;;;;1.63;0.80;;;22.70;85.10;;;;;;4992215;28;20047;-62
2022/06/28 11:14:56;;;;;;;1.40;0.90;;;22.70;85.10;;;;;;4992402;28;20046;-62
2022/06/28 11:17:26;;;;;;;0.82;0.73;;;22.70;85.00;;;;;;4991851;28;20076;-62
2022/06/28 11:19:55;;;;;;;2.30;0.80;;;22.70;85.00;;;;;;4991618;28;20121;-62
2022/06/28 11:22:27;;;;;;;1.55;0.90;;;22.70;85.00;;;;;;5006750;28;20051;-62
2022/06/28 11:24:55;;;;;;;0.73;0.60;;;22.70;85.00;;;;;;5008691;28;20567;-62
2022/06/28 11:27:21;;;;;;;0.70;0.70;;;22.70;85.00;;;;;;4991876;28;20089;-62
2022/06/28 11:29:50;;;;;;;1.27;0.70;;;22.70;85.00;;;;;;4992226;28;20042;-62
2022/06/28 11:32:29;;;;;;;1.40;0.77;;;22.70;85.00;;;;;;4991608;28;20047;-62
2022/06/28 11:35:05;;;;;;;1.50;1.00;;;22.70;84.90;;;;;;4991219;28;20039;-62
2022/06/28 11:37:47;;;;;;;1.17;0.73;;;22.70;84.90;;;;;;4990866;28;20108;-63
2022/06/28 11:40:13;;;;;;;1.92;0.80;;;22.70;85.00;;;;;;5005667;28;20050;-62
2022/06/28 11:42:39;;;;;;;0.80;0.65;;;22.70;85.00;;;;;;4994005;28;20053;-62
2022/06/28 11:45:06;;;;;;;1.33;0.80;;;22.70;85.00;;;;;;5011122;28;20127;-62
2022/06/28 11:47:32;;;;;;;1.98;1.00;;;22.70;85.00;;;;;;5010647;28;20103;-62
2022/06/28 11:50:17;;;;;;;0.60;0.60;;;22.70;85.00;;;;;;4993200;28;20068;-62
2022/06/28 11:52:54;;;;;;;0.85;0.85;;;22.70;84.90;;;;;;4974142;28;20390;-61
2022/06/28 11:55:47;;;;;;;2.85;1.20;;;22.70;85.00;;;;;;4990981;28;20042;-61
2022/06/28 11:58:17;;;;;;;9.43;1.35;;;22.70;82.90;;;;;;4991391;28;20046;-61
2022/06/28 12:01:02;;;;;;;4.15;1.35;;;22.70;84.00;;;;;;4991628;28;20046;-62
2022/06/28 12:03:27;;;;;;;150.35;15.65;;;22.70;82.40;;;;;;4992258;28;20042;-70
2022/06/28 13:34:36;;;;;;;3.30;0.80;;;;;;;;;;5086281;28;20187;-65
2022/06/28 13:37:03;;;;;;;2.75;0.65;;;;;;;;;;5058058;28;20095;-65
2022/06/28 13:39:29;;;;;;;2.15;1.00;;;;;;;;;;5061980;28;20083;-66
2022/06/28 13:41:55;;;;;;;0.75;0.75;;;;;;;;;;5053401;28;20048;-66
2022/06/28 13:44:22;;;;;;;1.08;0.60;;;;;;;;;;5053833;28;20047;-65
2022/06/28 13:46:48;;;;;;;2.42;0.88;;;;;;;;;;5058879;28;20071;-65
2022/06/28 13:49:15;;;;;;;0.82;0.77;;;;;;;;;;5063869;28;20055;-66
2022/06/28 13:51:42;;;;;;;1.58;0.70;;;;;;;;;;5059041;28;20041;-66
2022/06/28 13:54:08;;;;;;;1.90;0.70;;;;;;;;;;5052680;28;20594;-65
2022/06/28 13:56:34;;;;;;;1.08;0.70;;;;;;;;;;5062836;28;20053;-65
2022/06/28 13:59:00;;;;;;;1.25;0.80;;;;;;;;;;5051400;28;20041;-65
2022/06/28 14:01:26;;;;;;;2.05;0.88;;;;;;;;;;5049762;28;20135;-65
2022/06/28 14:03:52;;;;;;;2.28;0.73;;;;;;;;;;5067087;28;20053;-65
2022/06/28 14:06:18;;;;;;;0.52;0.50;;;;;;;;;;5064801;28;20056;-65
2022/06/28 14:08:44;;;;;;;0.63;0.60;;;;;;;;;;5059111;28;20049;-66
2022/06/28 14:11:10;;;;;;;2.60;0.65;;;;;;;;;;5046854;28;20059;-66
2022/06/28 14:13:36;;;;;;;0.70;0.70;;;;;;;;;;5048651;28;20383;-65
2022/06/28 14:16:02;;;;;;;2.05;0.70;;;;;;;;;;5052109;28;21656;-66
2022/06/28 14:18:28;;;;;;;0.68;0.68;;;;;;;;;;5051813;28;20049;-65
2022/06/28 14:20:54;;;;;;;2.72;0.63;;;;;;;;;;5057553;28;20044;-65
2022/06/28 14:23:20;;;;;;;1.35;0.70;;;;;;;;;;5067706;28;20041;-66
2022/06/28 14:25:46;;;;;;;1.92;0.80;;;;;;;;;;5050620;28;20045;-66
2022/06/28 14:28:12;;;;;;;1.35;0.70;;;;;;;;;;5050167;28;20073;-65
2022/06/28 14:30:39;;;;;;;0.95;0.70;;;;;;;;;;5053137;28;20049;-66
2022/06/28 14:33:05;;;;;;;1.15;0.65;;;;;;;;;;5055721;28;20524;-65
2022/06/28 14:35:32;;;;;;;0.60;0.60;;;;;;;;;;5074153;28;20048;-66
2022/06/28 14:37:58;;;;;;;0.63;0.50;;;;;;;;;;5053500;28;20052;-66